Time;durP1;ratioP1;P1;durP2;ratioP2;P2;SDS_P1;SDS_P2;PMS_P1;PMS_P2;Temp;Humidity;BMP_temperature;BMP_pressure;BME280_temperature;BME280_humidity;BME280_pressure;Samples;Min_cycle;Max_cycle;Signal;HPM_P1;HPM_P2
2020/01/21 00:00:23;;;;;;;35.9;29.5;;;;;;;1.63;78.74316;984.5221;;;;
2020/01/21 00:03:16;;;;;;;36.6;28.6;;;;;;;1.65;79.29785;984.5962;;;;
2020/01/21 00:07:45;;;;;;;41;32.7;;;;;;;1.47;80.07715;984.5608;;;;
2020/01/21 00:10:03;;;;;;;42.9;33.3;;;;;;;1.4;80.61523;984.5947;;;;
2020/01/21 00:12:28;;;;;;;41;33.3;;;;;;;1.35;80.99512;984.585;;;;
2020/01/21 00:14:53;;;;;;;44.7;34.7;;;;;;;1.39;80.79688;984.5803;;;;
2020/01/21 00:17:19;;;;;;;42.1;34.1;;;;;;;1.48;80.66309;984.6143;;;;
2020/01/21 00:19:44;;;;;;;46;36.8;;;;;;;1.36;81.31738;984.6003;;;;
2020/01/21 00:22:09;;;;;;;45;36.1;;;;;;;1.43;81.05762;984.5927;;;;
2020/01/21 00:24:34;;;;;;;45.6;36.3;;;;;;;1.52;80.59082;984.544;;;;
2020/01/21 00:26:59;;;;;;;45.8;36.5;;;;;;;1.6;80.52539;984.5027;;;;
2020/01/21 00:29:24;;;;;;;47.8;37;;;;;;;1.6;80.22656;984.4755;;;;
2020/01/21 00:31:49;;;;;;;49.2;37.9;;;;;;;1.36;81.26172;984.5167;;;;
2020/01/21 00:34:14;;;;;;;50.3;37.9;;;;;;;1.38;81.17383;984.5667;;;;
2020/01/21 00:36:39;;;;;;;49.5;38.5;;;;;;;1.24;81.94727;984.5947;;;;
2020/01/21 00:39:04;;;;;;;49.7;38.5;;;;;;;1.35;81.44336;984.6291;;;;
2020/01/21 00:41:29;;;;;;;51.4;39.4;;;;;;;1.14;82.16992;984.5954;;;;
2020/01/21 00:43:54;;;;;;;50.4;38.9;;;;;;;0.99;82.77051;984.5823;;;;
2020/01/21 00:46:19;;;;;;;52.6;39.9;;;;;;;1.08;82.75586;984.6337;;;;
2020/01/21 00:48:45;;;;;;;50.3;37.7;;;;;;;1.13;82.22559;984.6781;;;;
2020/01/21 00:51:10;;;;;;;49.5;38.4;;;;;;;1.16;82.03711;984.6824;;;;
2020/01/21 00:53:35;;;;;;;50.5;39.3;;;;;;;1.19;81.96191;984.6127;;;;
2020/01/21 00:56:01;;;;;;;53.8;39.4;;;;;;;1.12;82.17773;984.6299;;;;
2020/01/21 00:58:25;;;;;;;52.2;40.2;;;;;;;0.98;82.73535;984.6273;;;;
2020/01/21 01:00:51;;;;;;;50.9;39.8;;;;;;;0.95;82.99316;984.5429;;;;
2020/01/21 01:03:16;;;;;;;54;41;;;;;;;0.62;84.10742;984.5715;;;;
2020/01/21 01:05:41;;;;;;;57.3;42.1;;;;;;;0.57;84.62305;984.6214;;;;
2020/01/21 01:08:06;;;;;;;52.3;40.4;;;;;;;0.88;83.78027;984.6465;;;;
2020/01/21 01:10:31;;;;;;;49.8;39.1;;;;;;;1.17;82.62402;984.6494;;;;
2020/01/21 01:12:56;;;;;;;55.3;40.7;;;;;;;1.18;82.24512;984.627;;;;
2020/01/21 01:15:22;;;;;;;52.9;40.4;;;;;;;1.17;81.71777;984.6686;;;;
2020/01/21 01:17:47;;;;;;;52.5;40.5;;;;;;;1.09;82.46875;984.5424;;;;
2020/01/21 01:20:40;;;;;;;52.3;40.7;;;;;;;1.15;82.41406;984.6029;;;;
2020/01/21 01:25:05;;;;;;;58.6;42.6;;;;;;;1.14;81.99805;984.6188;;;;
2020/01/21 01:27:28;;;;;;;54.3;41.8;;;;;;;1.21;82.10449;984.6625;;;;
2020/01/21 01:29:53;;;;;;;55.4;41.7;;;;;;;1.24;82.12109;984.707;;;;
2020/01/21 01:32:18;;;;;;;54.5;42.1;;;;;;;1.35;81.80957;984.5994;;;;
2020/01/21 01:34:43;;;;;;;53.3;40.9;;;;;;;1.45;81.38086;984.5438;;;;
2020/01/21 01:37:08;;;;;;;54.2;40.7;;;;;;;1.48;81.18066;984.5959;;;;
2020/01/21 01:39:33;;;;;;;50.5;39.6;;;;;;;1.39;81.33594;984.6012;;;;
2020/01/21 01:41:59;;;;;;;54.9;41.6;;;;;;;1.33;81.89551;984.6055;;;;
2020/01/21 01:44:24;;;;;;;51.2;39.4;;;;;;;1.48;80.99512;984.5486;;;;
2020/01/21 01:46:49;;;;;;;54.3;41.1;;;;;;;1.48;80.84766;984.5053;;;;
2020/01/21 01:49:14;;;;;;;51.5;40.1;;;;;;;1.51;80.86426;984.4244;;;;
2020/01/21 01:51:39;;;;;;;50.6;39.3;;;;;;;1.62;80.31055;984.438;;;;
2020/01/21 01:54:05;;;;;;;52.3;39.2;;;;;;;1.6;80.16992;984.384;;;;
2020/01/21 01:56:30;;;;;;;50;39.2;;;;;;;1.45;80.69336;984.4483;;;;
2020/01/21 01:59:03;;;;;;;52.1;40.3;;;;;;;1.48;80.76563;984.4066;;;;
2020/01/21 02:01:27;;;;;;;54.4;41;;;;;;;1.53;80.60352;984.3621;;;;
2020/01/21 02:04:08;;;;;;;55.6;41.5;;;;;;;1.57;80.32324;984.3013;;;;
2020/01/21 02:11:09;;;;;;;48.7;38.4;;;;;;;1.27;81.08105;984.2075;;;;
2020/01/21 02:15:54;;;;;;;52.6;40.3;;;;;;;1.42;80.42285;984.2661;;;;
2020/01/21 02:18:15;;;;;;;51.8;39.8;;;;;;;1.48;80.41016;984.1724;;;;
2020/01/21 02:20:41;;;;;;;50.5;38.8;;;;;;;1.63;79.84375;984.1852;;;;
2020/01/21 02:23:06;;;;;;;50.6;38.9;;;;;;;1.71;79.58301;984.1959;;;;
2020/01/21 02:25:31;;;;;;;51.4;39.8;;;;;;;1.54;79.7002;984.1834;;;;
2020/01/21 02:27:56;;;;;;;49.2;38.8;;;;;;;1.57;79.92383;984.1609;;;;
2020/01/21 02:30:21;;;;;;;52.5;40.5;;;;;;;1.53;79.89258;984.147;;;;
2020/01/21 02:32:46;;;;;;;50.8;39.7;;;;;;;1.69;79.47656;984.1214;;;;
2020/01/21 02:35:11;;;;;;;48.6;37.8;;;;;;;1.88;78.42188;984.1389;;;;
2020/01/21 02:37:36;;;;;;;47.3;37.5;;;;;;;1.86;77.96875;984.0977;;;;
2020/01/21 02:40:01;;;;;;;47.6;37;;;;;;;1.65;77.95313;984.0898;;;;
2020/01/21 02:42:27;;;;;;;46.8;37.3;;;;;;;1.69;78.29395;984.1301;;;;
2020/01/21 02:44:52;;;;;;;47.4;36.6;;;;;;;1.73;78.11621;984.1047;;;;
2020/01/21 02:47:26;;;;;;;49.6;37.1;;;;;;;1.58;78.65332;984.0961;;;;
2020/01/21 02:49:56;;;;;;;48.3;38.1;;;;;;;1.5;78.82031;984.0789;;;;
2020/01/21 02:52:07;;;;;;;50.5;38.8;;;;;;;1.57;78.87891;984.0744;;;;
2020/01/21 02:54:32;;;;;;;47.3;37.5;;;;;;;1.69;78.3623;984.0588;;;;
2020/01/21 02:56:58;;;;;;;46.3;36.4;;;;;;;1.49;78.42871;984.0627;;;;
2020/01/21 02:59:23;;;;;;;46.6;35.7;;;;;;;1.42;78.53027;984.0472;;;;
2020/01/21 03:01:48;;;;;;;45.5;35.8;;;;;;;1.26;79.1875;984.0823;;;;
2020/01/21 03:04:13;;;;;;;47.7;36.7;;;;;;;1.38;79.34961;984.0527;;;;
2020/01/21 03:06:38;;;;;;;47.9;36.4;;;;;;;1.28;79.33008;984.037;;;;
2020/01/21 03:09:03;;;;;;;45.4;35.4;;;;;;;1.46;78.73145;984.0112;;;;
2020/01/21 03:11:28;;;;;;;45.1;35.6;;;;;;;1.27;79.33984;984.0594;;;;
2020/01/21 03:13:53;;;;;;;42.8;34.6;;;;;;;1.33;79.08691;984.0659;;;;
2020/01/21 03:16:19;;;;;;;48.9;36.6;;;;;;;1.16;79.82422;984.0251;;;;
2020/01/21 03:18:44;;;;;;;45.6;35.4;;;;;;;1.18;79.40332;984.0844;;;;
2020/01/21 03:21:09;;;;;;;44.8;35;;;;;;;1.03;79.44434;984.033;;;;
2020/01/21 03:23:34;;;;;;;48.1;36.7;;;;;;;0.88;80.42285;984.0648;;;;
2020/01/21 03:25:59;;;;;;;45.6;36.6;;;;;;;1.01;80.37891;984.0499;;;;
2020/01/21 03:28:26;;;;;;;48.1;36.9;;;;;;;0.95;80.42578;984.0068;;;;
2020/01/21 03:30:51;;;;;;;47.3;36.6;;;;;;;0.94;80.7207;983.9973;;;;
2020/01/21 03:33:15;;;;;;;47.2;37.8;;;;;;;1.15;80.26855;984.025;;;;
2020/01/21 03:35:42;;;;;;;48.9;37.8;;;;;;;1.14;79.77539;983.9888;;;;
2020/01/21 03:38:47;;;;;;;46.8;36.2;;;;;;;0.84;80.39258;983.9861;;;;
2020/01/21 03:42:56;;;;;;;47.3;36.2;;;;;;;0.72;81.08105;984.0084;;;;
2020/01/21 03:45:21;;;;;;;47.8;36.8;;;;;;;0.65;81.29492;984.0167;;;;
2020/01/21 03:47:46;;;;;;;49.7;38.3;;;;;;;0.76;81.29395;984.0198;;;;
2020/01/21 03:52:36;;;;;;;50.4;38.4;;;;;;;0.76;81.39746;983.9734;;;;
2020/01/21 03:55:01;;;;;;;49.4;38.2;;;;;;;1.12;80.12402;983.8884;;;;
2020/01/21 03:57:26;;;;;;;50.8;38.3;;;;;;;1.13;79.77051;983.9127;;;;
2020/01/21 03:59:51;;;;;;;52.5;38.4;;;;;;;1.1;79.93848;983.8979;;;;
2020/01/21 04:02:26;;;;;;;47.4;36.5;;;;;;;0.86;80.20117;983.8525;;;;
2020/01/21 04:04:51;;;;;;;49.8;37.9;;;;;;;0.96;80.12988;983.858;;;;
2020/01/21 04:07:16;;;;;;;51.6;38.6;;;;;;;0.78;80.93262;983.8247;;;;
2020/01/21 04:09:41;;;;;;;51.8;39.8;;;;;;;0.7;81.44336;983.7905;;;;
2020/01/21 04:12:06;;;;;;;50.4;38.4;;;;;;;0.52;81.77344;983.7844;;;;
2020/01/21 04:14:31;;;;;;;51.2;38.7;;;;;;;0.55;81.96387;983.783;;;;
2020/01/21 04:16:56;;;;;;;53.3;39.6;;;;;;;0.51;82.27734;983.7988;;;;
2020/01/21 04:19:21;;;;;;;52.8;39;;;;;;;0.55;82.00977;983.7742;;;;
2020/01/21 04:21:46;;;;;;;49.8;37.9;;;;;;;0.72;81.80176;983.7227;;;;
2020/01/21 04:26:37;;;;;;;54.1;40.1;;;;;;;0.85;81.0918;983.713;;;;
2020/01/21 04:29:02;;;;;;;51.6;39.3;;;;;;;0.92;81.08594;983.7255;;;;
2020/01/21 04:31:27;;;;;;;50.5;39.1;;;;;;;1.15;80.17676;983.7011;;;;
2020/01/21 04:33:52;;;;;;;53.3;39.9;;;;;;;1.1;79.8916;983.7134;;;;
2020/01/21 04:36:17;;;;;;;51.6;39.9;;;;;;;0.98;80.58008;983.6744;;;;
2020/01/21 04:38:43;;;;;;;50.7;38.1;;;;;;;1.18;80.03418;983.6572;;;;
2020/01/21 04:41:08;;;;;;;53.1;39.2;;;;;;;0.78;81.26367;983.7166;;;;
2020/01/21 04:43:33;;;;;;;52.1;39.2;;;;;;;0.91;81.36914;983.7349;;;;
2020/01/21 04:45:58;;;;;;;48.3;37.6;;;;;;;0.94;80.94043;983.7559;;;;
2020/01/21 04:48:23;;;;;;;49.3;38;;;;;;;1.06;79.96484;983.6917;;;;
2020/01/21 04:50:48;;;;;;;49;37.2;;;;;;;0.68;80.58984;983.7377;;;;
2020/01/21 04:53:13;;;;;;;46.5;35.4;;;;;;;1;80.30859;983.7059;;;;
2020/01/21 04:55:38;;;;;;;46.1;37;;;;;;;1.23;79.36621;983.6782;;;;
2020/01/21 04:58:03;;;;;;;47.5;36.4;;;;;;;1.19;78.84277;983.7117;;;;
2020/01/21 05:00:28;;;;;;;46.4;36.1;;;;;;;1.14;79.04102;983.7371;;;;
2020/01/21 05:02:53;;;;;;;48;37.2;;;;;;;1.06;78.95605;983.731;;;;
2020/01/21 05:05:18;;;;;;;47.7;36.8;;;;;;;1.02;79.31445;983.7693;;;;
2020/01/21 05:07:43;;;;;;;46.3;35.2;;;;;;;1.35;78.67578;983.7302;;;;
2020/01/21 05:10:08;;;;;;;47.6;36.2;;;;;;;1.47;77.79395;983.7011;;;;
2020/01/21 05:12:33;;;;;;;51.7;38.1;;;;;;;1.4;77.65332;983.6872;;;;
2020/01/21 05:14:58;;;;;;;46.6;36.4;;;;;;;1.32;78.24805;983.6057;;;;
2020/01/21 05:17:24;;;;;;;49.1;37.7;;;;;;;1.41;77.8291;983.6036;;;;
2020/01/21 05:19:49;;;;;;;49.9;38.4;;;;;;;1.5;77.61523;983.5712;;;;
2020/01/21 05:22:14;;;;;;;47;37.4;;;;;;;1.53;77.35645;983.5609;;;;
2020/01/21 05:24:39;;;;;;;50.1;37.7;;;;;;;1.58;77.35645;983.6044;;;;
2020/01/21 05:27:07;;;;;;;52.3;39.9;;;;;;;1.18;78.48633;983.6764;;;;
2020/01/21 05:29:29;;;;;;;53.2;38.5;;;;;;;1.15;78.65137;983.6738;;;;
2020/01/21 05:32:11;;;;;;;50.6;38.6;;;;;;;1.06;79.11621;983.6564;;;;
2020/01/21 05:34:19;;;;;;;52.2;39.4;;;;;;;1.05;79.5166;983.7143;;;;
2020/01/21 05:36:44;;;;;;;51.6;38.5;;;;;;;0.94;79.4502;983.7319;;;;
2020/01/21 05:39:10;;;;;;;53.8;39.3;;;;;;;0.9;79.81836;983.7582;;;;
2020/01/21 05:41:35;;;;;;;54.4;40.4;;;;;;;0.71;80.35645;983.7803;;;;
2020/01/21 05:44:40;;;;;;;50.3;37.7;;;;;;;1;79.54102;983.7947;;;;
2020/01/21 05:46:30;;;;;;;51;38.1;;;;;;;0.86;79.15918;983.7756;;;;
2020/01/21 05:48:51;;;;;;;51.2;39.7;;;;;;;0.89;79.22266;983.7814;;;;
2020/01/21 05:51:15;;;;;;;53.2;39.9;;;;;;;0.92;79.15918;983.7774;;;;
2020/01/21 05:53:41;;;;;;;51.7;39;;;;;;;0.79;79.75293;983.7567;;;;
2020/01/21 05:56:06;;;;;;;54;39.4;;;;;;;0.78;79.95703;983.7999;;;;
2020/01/21 05:58:31;;;;;;;52.9;39.2;;;;;;;0.87;79.46973;983.7997;;;;
2020/01/21 06:00:56;;;;;;;55;39.3;;;;;;;0.89;79.28027;983.7886;;;;
2020/01/21 06:03:21;;;;;;;53.9;40.4;;;;;;;0.91;79.34277;983.791;;;;
2020/01/21 06:05:46;;;;;;;55.4;39.9;;;;;;;0.77;79.88672;983.7597;;;;
2020/01/21 06:08:11;;;;;;;57.2;41.7;;;;;;;0.94;79.30176;983.7729;;;;
2020/01/21 06:10:36;;;;;;;54.4;40.3;;;;;;;1.09;79.19043;983.7681;;;;
2020/01/21 06:13:01;;;;;;;56.8;41.3;;;;;;;1.11;78.51758;983.7441;;;;
2020/01/21 06:15:26;;;;;;;58.5;41.5;;;;;;;1.07;78.45508;983.7495;;;;
2020/01/21 06:17:51;;;;;;;53.6;40.5;;;;;;;1.08;78.31934;983.7369;;;;
2020/01/21 06:20:16;;;;;;;54.1;39.4;;;;;;;0.78;79.10938;983.8102;;;;
2020/01/21 06:22:41;;;;;;;54;40.8;;;;;;;0.86;79.3877;983.8044;;;;
2020/01/21 06:25:06;;;;;;;53.2;39.6;;;;;;;0.96;78.96094;983.7714;;;;
2020/01/21 06:27:32;;;;;;;56.8;40.7;;;;;;;1.04;78.56348;983.8047;;;;
2020/01/21 06:29:57;;;;;;;49.9;38.8;;;;;;;1.17;78.03711;983.7991;;;;
2020/01/21 06:32:22;;;;;;;54.1;39.8;;;;;;;1.2;77.6748;983.7206;;;;
2020/01/21 06:34:47;;;;;;;55.6;40.6;;;;;;;1.21;77.71094;983.735;;;;
2020/01/21 06:37:12;;;;;;;53.1;39.9;;;;;;;1.22;77.72461;983.6797;;;;
2020/01/21 06:39:37;;;;;;;52.8;39.9;;;;;;;1.33;77.28613;983.7684;;;;
2020/01/21 06:42:02;;;;;;;55.9;41.1;;;;;;;1.24;77.47656;983.8107;;;;
2020/01/21 06:44:27;;;;;;;54.8;41.6;;;;;;;1;78.64844;983.802;;;;
2020/01/21 06:46:52;;;;;;;55.3;41.4;;;;;;;1.14;78.13574;983.8453;;;;
2020/01/21 06:49:17;;;;;;;57;42.3;;;;;;;0.72;78.74316;983.7755;;;;
2020/01/21 06:51:42;;;;;;;58.4;42.6;;;;;;;0.65;79.88672;983.7403;;;;
2020/01/21 06:54:07;;;;;;;55.3;42;;;;;;;0.58;79.77051;983.7855;;;;
2020/01/21 06:56:32;;;;;;;55.5;41.6;;;;;;;0.45;79.74707;983.7511;;;;
2020/01/21 06:58:57;;;;;;;53.8;40.9;;;;;;;0.56;79.6543;983.7559;;;;
2020/01/21 07:01:23;;;;;;;55.7;42.9;;;;;;;0.8;79.52539;983.8055;;;;
2020/01/21 07:03:48;;;;;;;56;42.1;;;;;;;0.88;80.88281;983.7869;;;;
2020/01/21 07:06:13;;;;;;;54.1;41.9;;;;;;;1.1;79.125;983.8042;;;;
2020/01/21 07:08:38;;;;;;;52.6;40.4;;;;;;;1.39;78.1582;983.7897;;;;
2020/01/21 07:11:03;;;;;;;52.6;41;;;;;;;1.53;76.74805;983.8183;;;;
2020/01/21 07:13:28;;;;;;;53.6;40.6;;;;;;;1.64;76.05762;983.7882;;;;
2020/01/21 07:15:53;;;;;;;53.3;41.7;;;;;;;1.27;76.6084;983.749;;;;
2020/01/21 07:18:18;;;;;;;56.1;42.5;;;;;;;0.84;77.97559;983.8274;;;;
2020/01/21 07:20:43;;;;;;;56.8;42.4;;;;;;;0.67;79.0332;983.7654;;;;
2020/01/21 07:23:09;;;;;;;52.9;40.3;;;;;;;0.53;79.46484;983.8099;;;;
2020/01/21 07:25:34;;;;;;;53.5;39.9;;;;;;;0.22;79.83984;983.8267;;;;
2020/01/21 07:27:59;;;;;;;54;40.5;;;;;;;0.07;80.22266;983.842;;;;
2020/01/21 07:30:24;;;;;;;52.2;40.1;;;;;;;0.19;80.0293;983.835;;;;
2020/01/21 07:32:49;;;;;;;51.9;39.7;;;;;;;0.52;79.10742;983.8733;;;;
2020/01/21 07:35:14;;;;;;;51.6;39.4;;;;;;;0.79;78.25195;983.9378;;;;
2020/01/21 07:37:39;;;;;;;52.2;40.7;;;;;;;0.96;77.36816;983.9133;;;;
2020/01/21 07:40:04;;;;;;;50.6;40.1;;;;;;;1.1;76.96973;983.9228;;;;
2020/01/21 07:42:29;;;;;;;50.4;40.4;;;;;;;1;76.74609;983.9767;;;;
2020/01/21 07:44:54;;;;;;;52.3;40.9;;;;;;;0.78;77.71191;983.9601;;;;
2020/01/21 07:47:19;;;;;;;54.5;41;;;;;;;0.7;78.05273;984.0547;;;;
2020/01/21 07:49:44;;;;;;;56.4;41.9;;;;;;;0.61;78.47168;984.0444;;;;
2020/01/21 07:52:10;;;;;;;55;41.9;;;;;;;0.51;78.41895;984.0333;;;;
2020/01/21 07:54:35;;;;;;;52.6;40.4;;;;;;;0.67;77.83008;984.0363;;;;
2020/01/21 07:57:00;;;;;;;54.2;42.7;;;;;;;0.81;77.81055;984.01;;;;
2020/01/21 07:59:25;;;;;;;51;39.6;;;;;;;1.01;76.78027;984.0297;;;;
2020/01/21 08:02:10;;;;;;;49;38.5;;;;;;;0.92;76.3877;984.0772;;;;
2020/01/21 08:04:16;;;;;;;49.1;37.9;;;;;;;1.23;75.47852;984.0414;;;;
2020/01/21 08:09:06;;;;;;;46.5;37.1;;;;;;;0.85;75.46777;984.0759;;;;
2020/01/21 08:11:42;;;;;;;48.2;37.9;;;;;;;0.77;76.19824;984.0737;;;;
2020/01/21 08:14:00;;;;;;;50.8;38.6;;;;;;;0.36;77.39453;984.0447;;;;
2020/01/21 08:16:23;;;;;;;49.2;38.5;;;;;;;0.4;77.49414;984.0908;;;;
2020/01/21 08:18:47;;;;;;;48.9;37.6;;;;;;;0.32;77.70801;984.0917;;;;
2020/01/21 08:21:14;;;;;;;47.8;36.9;;;;;;;0.09;77.91895;984.1024;;;;
2020/01/21 08:24:22;;;;;;;47.1;37.6;;;;;;;0.29;77.84082;984.0898;;;;
2020/01/21 08:26:04;;;;;;;48.7;38;;;;;;;0.27;77.45801;984.0566;;;;
2020/01/21 08:28:28;;;;;;;49.3;37.5;;;;;;;0.22;77.00195;984.0828;;;;
2020/01/21 08:30:52;;;;;;;48.4;38.1;;;;;;;0.33;77.26563;984.0991;;;;
2020/01/21 08:33:30;;;;;;;44.8;35.5;;;;;;;0.35;76.76367;984.1125;;;;
2020/01/21 08:35:47;;;;;;;47.1;36;;;;;;;0.45;77.21777;984.0584;;;;
2020/01/21 08:38:08;;;;;;;46.2;37.1;;;;;;;0.73;75.63086;984.0542;;;;
2020/01/21 08:40:33;;;;;;;43.1;34.2;;;;;;;0.98;74.72363;984.0126;;;;
2020/01/21 08:42:58;;;;;;;43.7;35.7;;;;;;;1.15;73.91602;984.0666;;;;
2020/01/21 08:47:53;;;;;;;43.6;35.3;;;;;;;1.22;74.00879;984.0925;;;;
2020/01/21 08:50:18;;;;;;;42.9;34.5;;;;;;;1.17;73.45117;984.0963;;;;
2020/01/21 08:52:39;;;;;;;41.8;34.4;;;;;;;1.04;73.64551;984.1517;;;;
2020/01/21 08:55:04;;;;;;;41.2;33.2;;;;;;;0.79;74.27734;984.1058;;;;
2020/01/21 08:57:29;;;;;;;40.7;33.1;;;;;;;1.01;73.51367;984.065;;;;
2020/01/21 08:59:54;;;;;;;43.3;34.2;;;;;;;1.11;72.83301;984.0303;;;;
2020/01/21 09:02:19;;;;;;;43.4;35;;;;;;;1.28;72.68945;984.0514;;;;
2020/01/21 09:04:44;;;;;;;41.5;33.6;;;;;;;1.31;72.25781;984.0787;;;;
2020/01/21 09:07:09;;;;;;;43.6;34;;;;;;;1.43;72.54297;984.0883;;;;
2020/01/21 09:09:34;;;;;;;45.7;35.5;;;;;;;1.29;72.61035;984.117;;;;
2020/01/21 09:11:59;;;;;;;44.2;35.7;;;;;;;1.35;72.37988;984.1142;;;;
2020/01/21 09:14:25;;;;;;;42.4;33.8;;;;;;;1.56;71.85254;984.087;;;;
2020/01/21 09:16:50;;;;;;;43.8;35.7;;;;;;;1.36;71.84375;984.1229;;;;
2020/01/21 09:19:15;;;;;;;44.1;34.6;;;;;;;1.58;71.45508;984.1418;;;;
2020/01/21 09:21:40;;;;;;;42.9;35.3;;;;;;;1.57;71.21387;984.1017;;;;
2020/01/21 09:24:05;;;;;;;45.2;35.3;;;;;;;1.41;71.7832;984.0984;;;;
2020/01/21 09:26:30;;;;;;;44.6;34.2;;;;;;;1.37;71.49023;984.1672;;;;
2020/01/21 09:28:55;;;;;;;41.2;34.2;;;;;;;1.43;71.80859;984.1364;;;;
2020/01/21 09:31:26;;;;;;;45;35.6;;;;;;;0.82;73.92676;984.1983;;;;
2020/01/21 09:36:11;;;;;;;44.1;34.4;;;;;;;1.1;73.95313;984.1848;;;;
2020/01/21 09:41:11;;;;;;;43;34.9;;;;;;;1.36;72.92285;984.1735;;;;
2020/01/21 09:43:26;;;;;;;42.9;35.3;;;;;;;1.05;73.94531;984.1855;;;;
2020/01/21 09:45:51;;;;;;;43.6;35.4;;;;;;;1.27;73.33008;984.2053;;;;
2020/01/21 09:48:17;;;;;;;47.4;35.5;;;;;;;0.89;74.15625;984.1731;;;;
2020/01/21 09:50:42;;;;;;;45.7;35.2;;;;;;;0.79;74.28906;984.2163;;;;
2020/01/21 09:53:07;;;;;;;42.4;35.1;;;;;;;1.02;73.87207;984.1699;;;;
2020/01/21 09:55:32;;;;;;;44;35.3;;;;;;;1.23;72.9209;984.1873;;;;
2020/01/21 09:57:57;;;;;;;44.7;35;;;;;;;1.34;72.91797;984.1125;;;;
2020/01/21 10:00:23;;;;;;;44.6;34.8;;;;;;;1.65;72.06445;984.0964;;;;
2020/01/21 10:02:47;;;;;;;45.3;35.4;;;;;;;1.39;72.43359;984.1216;;;;
2020/01/21 10:05:13;;;;;;;45.5;36;;;;;;;1.44;72.67188;984.0303;;;;
2020/01/21 10:07:38;;;;;;;43.6;33.8;;;;;;;1.64;72.00488;984.0032;;;;
2020/01/21 10:10:03;;;;;;;44.7;35.2;;;;;;;1.54;72.28516;983.9772;;;;
2020/01/21 10:12:29;;;;;;;45.9;34.5;;;;;;;1.64;72.61328;983.9824;;;;
2020/01/21 10:14:54;;;;;;;45;35.4;;;;;;;1.43;72.40723;983.9239;;;;
2020/01/21 10:17:19;;;;;;;43.6;34.7;;;;;;;1.45;72.67188;983.9189;;;;
2020/01/21 10:19:44;;;;;;;46;36.8;;;;;;;1.58;72.35059;983.9228;;;;
2020/01/21 10:22:09;;;;;;;43;35.2;;;;;;;1.68;71.51855;983.9191;;;;
2020/01/21 10:24:34;;;;;;;45;35.4;;;;;;;1.83;71.03906;983.9204;;;;
2020/01/21 10:27:00;;;;;;;42.4;33.8;;;;;;;2.03;70.86426;983.8326;;;;
2020/01/21 10:29:24;;;;;;;44.7;35.2;;;;;;;2.03;70.24609;983.8094;;;;
2020/01/21 10:32:06;;;;;;;41.7;34.3;;;;;;;2.05;70.16797;983.8237;;;;
2020/01/21 10:34:24;;;;;;;43.4;34.2;;;;;;;2.08;70.08105;983.7949;;;;
2020/01/21 10:36:40;;;;;;;42.6;34.6;;;;;;;1.65;70.9502;983.7947;;;;
2020/01/21 10:39:05;;;;;;;43.5;33.3;;;;;;;1.56;71.03906;983.7726;;;;
2020/01/21 10:41:30;;;;;;;43;32.7;;;;;;;1.88;70.65723;983.6799;;;;
2020/01/21 10:43:55;;;;;;;42;32.5;;;;;;;1.92;70.22559;983.6519;;;;
2020/01/21 10:46:20;;;;;;;41.3;31.8;;;;;;;1.89;70.79492;983.6663;;;;
2020/01/21 10:48:45;;;;;;;40.6;33.8;;;;;;;1.95;71.4375;983.6022;;;;
2020/01/21 10:51:11;;;;;;;41.2;32.9;;;;;;;1.75;71.18457;983.6248;;;;
2020/01/21 10:53:36;;;;;;;41;32.3;;;;;;;1.57;71.21289;983.6693;;;;
2020/01/21 10:56:01;;;;;;;42.2;32.4;;;;;;;1.31;71.11133;983.6153;;;;
2020/01/21 10:58:26;;;;;;;40.1;31.8;;;;;;;1.55;71.58691;983.6052;;;;
2020/01/21 11:00:51;;;;;;;42.9;31.7;;;;;;;1.54;71.43652;983.5818;;;;
2020/01/21 11:03:16;;;;;;;39.8;32;;;;;;;1.45;71.06543;983.5999;;;;
2020/01/21 11:05:41;;;;;;;40;31.9;;;;;;;1.26;71.83594;983.6246;;;;
2020/01/21 11:08:07;;;;;;;39.5;32;;;;;;;1.3;71.59082;983.5839;;;;
2020/01/21 11:10:32;;;;;;;41.2;32;;;;;;;1.35;71.68164;983.5771;;;;
2020/01/21 11:12:57;;;;;;;39.1;31.7;;;;;;;1.68;71.53027;983.5605;;;;
2020/01/21 11:15:22;;;;;;;41.9;31.4;;;;;;;1.91;70.08789;983.4857;;;;
2020/01/21 11:17:47;;;;;;;40.5;31.3;;;;;;;1.94;69.51758;983.4993;;;;
2020/01/21 11:20:12;;;;;;;40;31.3;;;;;;;1.61;70.08398;983.5387;;;;
2020/01/21 11:27:30;;;;;;;36.9;29.2;;;;;;;1.9;68.95996;983.3467;;;;
2020/01/21 11:30:11;;;;;;;36.7;29;;;;;;;2.03;69.00293;983.3109;;;;
2020/01/21 11:32:22;;;;;;;39.1;30;;;;;;;2.08;68.5293;983.3495;;;;
2020/01/21 11:34:43;;;;;;;37.5;28.8;;;;;;;2.15;68.87402;983.3681;;;;
2020/01/21 11:37:08;;;;;;;38;29.3;;;;;;;2.42;67.87012;983.335;;;;
2020/01/21 11:42:01;;;;;;;38.2;29.8;;;;;;;2.02;68.58984;983.3013;;;;
2020/01/21 11:44:25;;;;;;;36.1;29;;;;;;;2.16;67.96777;983.3309;;;;
2020/01/21 11:46:46;;;;;;;41.3;30.6;;;;;;;1.91;68.16895;983.3091;;;;
2020/01/21 11:49:14;;;;;;;41.7;29.2;;;;;;;2.12;68.0752;983.2473;;;;
2020/01/21 11:51:36;;;;;;;40.6;29.9;;;;;;;2.04;68.28223;983.1855;;;;
2020/01/21 11:54:01;;;;;;;40.6;30.6;;;;;;;2.04;69.0293;983.2329;;;;
2020/01/21 11:56:26;;;;;;;41.2;31.3;;;;;;;1.71;69.7666;983.1755;;;;
2020/01/21 11:58:51;;;;;;;43;31.6;;;;;;;1.58;70.13672;983.1649;;;;
2020/01/21 12:01:16;;;;;;;38.1;30.9;;;;;;;1.96;69.71582;983.1648;;;;
2020/01/21 12:03:41;;;;;;;41.3;31.3;;;;;;;2.28;68.12402;983.2042;;;;
2020/01/21 12:06:06;;;;;;;39;30;;;;;;;2.58;67.70117;983.2072;;;;
2020/01/21 12:08:31;;;;;;;40.2;31.8;;;;;;;2.67;67.24414;983.1501;;;;
2020/01/21 12:10:56;;;;;;;39.5;30.8;;;;;;;2.34;68.22754;983.1526;;;;
2020/01/21 12:13:22;;;;;;;42;32.4;;;;;;;2.48;67.62695;983.1519;;;;
2020/01/21 12:15:47;;;;;;;41.7;29.8;;;;;;;2.54;66.97168;983.0723;;;;
2020/01/21 12:18:12;;;;;;;39.1;30.1;;;;;;;2.61;66.46289;983.0359;;;;
2020/01/21 12:23:04;;;;;;;41.9;32.6;;;;;;;2.35;67.96387;982.9897;;;;
2020/01/21 12:25:27;;;;;;;40.7;31.1;;;;;;;2.5;68.11328;982.9637;;;;
2020/01/21 12:27:52;;;;;;;41;31.7;;;;;;;2.65;67.0918;982.9138;;;;
2020/01/21 12:30:17;;;;;;;40.1;30.9;;;;;;;2.46;67.40723;982.9069;;;;
2020/01/21 12:32:42;;;;;;;39.5;30.9;;;;;;;2.18;69.26953;982.9;;;;
2020/01/21 12:35:08;;;;;;;39.8;31.3;;;;;;;2.22;68.94336;982.8284;;;;
2020/01/21 12:37:33;;;;;;;39.3;30.6;;;;;;;2.06;69.31836;982.83;;;;
2020/01/21 12:39:58;;;;;;;40.4;30.7;;;;;;;2.14;69.6875;982.8164;;;;
2020/01/21 12:42:23;;;;;;;42.4;30.5;;;;;;;2.39;68.40625;982.8539;;;;
2020/01/21 12:44:48;;;;;;;39;30.4;;;;;;;2.27;68.3291;982.7994;;;;
2020/01/21 12:47:13;;;;;;;39;30.5;;;;;;;1.89;69.40527;982.7434;;;;
2020/01/21 12:49:38;;;;;;;42;30.7;;;;;;;2.08;69.3916;982.7231;;;;
2020/01/21 12:52:03;;;;;;;40.4;29.9;;;;;;;2.21;68.65234;982.6742;;;;
2020/01/21 12:54:28;;;;;;;41.5;29.8;;;;;;;1.98;68.71875;982.6429;;;;
2020/01/21 12:56:53;;;;;;;38.8;29.9;;;;;;;1.71;70.24902;982.6251;;;;
2020/01/21 12:59:19;;;;;;;38;28.5;;;;;;;1.79;70.44434;982.6212;;;;
2020/01/21 13:01:44;;;;;;;41.1;30.6;;;;;;;1.82;70.03809;982.5322;;;;
2020/01/21 13:04:09;;;;;;;39.1;29.6;;;;;;;2.22;68.58691;982.5483;;;;
2020/01/21 13:06:34;;;;;;;39.5;29.2;;;;;;;1.97;68.98145;982.5474;;;;
2020/01/21 13:08:59;;;;;;;40.1;30.2;;;;;;;1.73;69.81543;982.4792;;;;
2020/01/21 13:11:25;;;;;;;40.4;30.5;;;;;;;1.73;70.52734;982.4953;;;;
2020/01/21 13:13:56;;;;;;;40.6;29.8;;;;;;;1.59;70.57324;982.4989;;;;
2020/01/21 13:16:15;;;;;;;39.1;29.9;;;;;;;1.45;71.36523;982.4724;;;;
2020/01/21 13:18:40;;;;;;;38.7;29.5;;;;;;;1.72;71.24902;982.4391;;;;
2020/01/21 13:21:05;;;;;;;38.6;29.1;;;;;;;1.59;70.71094;982.4227;;;;
2020/01/21 13:23:30;;;;;;;39.1;28.7;;;;;;;1.26;71.90625;982.4053;;;;
2020/01/21 13:25:55;;;;;;;39;29;;;;;;;1.29;72.38086;982.4238;;;;
2020/01/21 13:28:20;;;;;;;36.8;28.3;;;;;;;1.53;71.27441;982.3859;;;;
2020/01/21 13:30:45;;;;;;;36.3;28.5;;;;;;;1.64;70.69629;982.4141;;;;
2020/01/21 13:33:11;;;;;;;37.1;28.4;;;;;;;1.14;72.51758;982.4153;;;;
2020/01/21 13:35:36;;;;;;;40.4;29;;;;;;;1.42;72.32324;982.4274;;;;
2020/01/21 13:38:01;;;;;;;38.7;29.3;;;;;;;1.72;71.44434;982.4263;;;;
2020/01/21 13:40:27;;;;;;;35.9;28.4;;;;;;;1.92;70.11035;982.4095;;;;
2020/01/21 13:42:52;;;;;;;36.2;28;;;;;;;2.01;69.97656;982.3677;;;;
2020/01/21 13:45:17;;;;;;;39.4;28.3;;;;;;;2.15;69.24219;982.3156;;;;
2020/01/21 13:47:42;;;;;;;35.7;27.1;;;;;;;1.75;69.69238;982.2489;;;;
2020/01/21 13:50:07;;;;;;;36.7;27.6;;;;;;;1.66;70.80273;982.1992;;;;
2020/01/21 13:52:32;;;;;;;36.3;27.8;;;;;;;1.65;71.00781;982.1696;;;;
2020/01/21 13:54:57;;;;;;;36;28.5;;;;;;;1.85;70.43359;982.2355;;;;
2020/01/21 13:57:22;;;;;;;40.5;29.4;;;;;;;1.83;70.28125;982.1848;;;;
2020/01/21 13:59:47;;;;;;;39.7;31;;;;;;;1.9;70.17773;982.2015;;;;
2020/01/21 14:04:47;;;;;;;42.2;29.9;;;;;;;1.56;71.19824;982.1909;;;;
2020/01/21 14:07:03;;;;;;;41.9;29.4;;;;;;;1.61;70.93359;982.2023;;;;
2020/01/21 14:09:28;;;;;;;37.1;28.7;;;;;;;1.8;70.41406;982.1856;;;;
2020/01/21 14:11:53;;;;;;;40.5;28.6;;;;;;;2.07;69.83887;982.1447;;;;
2020/01/21 14:14:18;;;;;;;39.7;29.1;;;;;;;1.98;70.60352;982.1141;;;;
2020/01/21 14:16:43;;;;;;;37.8;29;;;;;;;1.83;70.85352;982.0564;;;;
2020/01/21 14:19:08;;;;;;;37.5;28.5;;;;;;;1.38;71.92773;982.0153;;;;
2020/01/21 14:21:33;;;;;;;37.1;28.1;;;;;;;1.12;73.05078;982.0652;;;;
2020/01/21 14:23:59;;;;;;;38.1;28.5;;;;;;;1.25;73.22363;982.0164;;;;
2020/01/21 14:26:24;;;;;;;35.2;26.9;;;;;;;1.45;72.13281;982.0064;;;;
2020/01/21 14:28:49;;;;;;;38.7;28.5;;;;;;;1.63;71.40723;981.968;;;;
2020/01/21 14:31:14;;;;;;;37.4;28.4;;;;;;;1.77;71.31445;982.0051;;;;
2020/01/21 14:33:39;;;;;;;37.4;27.8;;;;;;;1.81;71.20703;981.9618;;;;
2020/01/21 14:36:05;;;;;;;37.8;28.5;;;;;;;2.03;70.6123;981.9897;;;;
2020/01/21 14:38:30;;;;;;;36.2;28.9;;;;;;;1.99;70.27246;982.0419;;;;
2020/01/21 14:40:55;;;;;;;37;29.5;;;;;;;1.92;70.44336;981.9489;;;;